createdAt,value
2023-05-14T00:02:20.546Z,85
2023-05-14T00:07:22.402Z,84
2023-05-14T00:12:24.210Z,85
2023-05-14T00:17:25.440Z,85
2023-05-14T00:22:26.767Z,85
2023-05-14T00:27:28.647Z,84
2023-05-14T00:32:30.356Z,85
2023-05-14T00:37:31.858Z,85
2023-05-14T00:42:33.269Z,85
2023-05-14T00:47:35.126Z,86
2023-05-14T00:52:36.480Z,85
2023-05-14T00:57:37.908Z,85
2023-05-14T01:02:40.134Z,85
2023-05-14T01:07:41.548Z,85
2023-05-14T01:12:42.808Z,84
2023-05-14T01:17:44.103Z,85
2023-05-14T01:22:46.027Z,85
2023-05-14T01:27:47.570Z,84
2023-05-14T01:32:49.608Z,85
2023-05-14T01:37:51.229Z,86
2023-05-14T01:42:52.945Z,85
2023-05-14T01:47:55.081Z,86
2023-05-14T01:52:56.910Z,85
2023-05-14T01:57:58.627Z,86
2023-05-14T02:03:00.323Z,85
2023-05-14T02:08:02.440Z,85
2023-05-14T02:13:03.788Z,85
2023-05-14T02:18:05.643Z,85
2023-05-14T02:23:07.087Z,85
2023-05-14T02:28:08.876Z,85
2023-05-14T02:33:10.873Z,85
2023-05-14T02:38:12.992Z,85
2023-05-14T02:43:14.614Z,85
2023-05-14T03:23:28.877Z,84
2023-05-14T03:43:35.156Z,85
2023-05-14T03:53:37.849Z,84
2023-05-14T04:18:45.780Z,85
2023-05-14T04:28:48.955Z,86
2023-05-14T04:33:50.633Z,86
2023-05-14T04:43:53.874Z,86
2023-05-14T04:53:57.009Z,87
2023-05-14T04:58:58.401Z,87
2023-05-14T05:04:00.242Z,88
2023-05-14T05:29:08.550Z,93
2023-05-14T05:49:15.382Z,94
2023-05-14T05:54:17.056Z,95
2023-05-14T05:59:18.342Z,96
2023-05-14T06:04:20.014Z,95
2023-05-14T06:09:22.077Z,95
2023-05-14T06:14:24.047Z,95
2023-05-14T06:19:26.203Z,94
2023-05-14T06:24:27.781Z,93
2023-05-14T06:29:29.407Z,93
2023-05-14T06:34:30.725Z,93
2023-05-14T06:39:32.507Z,91
2023-05-14T06:44:34.625Z,91
2023-05-14T06:49:36.353Z,90
2023-05-14T06:54:38.404Z,91
2023-05-14T06:59:39.816Z,90
2023-05-14T07:04:41.702Z,90
2023-05-14T07:09:42.931Z,89
2023-05-14T07:14:45.117Z,88
2023-05-14T07:19:46.873Z,88
2023-05-14T07:24:48.672Z,87
2023-05-14T07:29:50.255Z,88
2023-05-14T07:34:51.447Z,88
2023-05-14T07:39:52.857Z,87
2023-05-14T07:44:54.441Z,87
2023-05-14T07:49:55.750Z,87
2023-05-14T07:54:57.805Z,85
2023-05-14T07:59:59.615Z,84
2023-05-14T08:05:01.000Z,84
2023-05-14T08:10:02.990Z,84
2023-05-14T08:15:04.971Z,83
2023-05-14T08:20:07.067Z,83
2023-05-14T08:25:08.347Z,83
2023-05-14T08:30:10.387Z,82
2023-05-14T08:35:12.262Z,81
2023-05-14T08:40:14.433Z,81
2023-05-14T08:45:16.364Z,80
2023-05-14T08:50:18.014Z,82
2023-05-14T08:55:19.216Z,79
2023-05-14T09:00:21.255Z,79
2023-05-14T09:05:22.994Z,78
2023-05-14T09:10:24.897Z,77
2023-05-14T09:15:26.607Z,77
2023-05-14T09:20:28.414Z,77
2023-05-14T09:25:29.397Z,77
2023-05-14T09:30:31.064Z,76
2023-05-14T09:35:32.865Z,75
2023-05-14T09:40:34.247Z,75
2023-05-14T09:45:35.925Z,74
2023-05-14T09:50:38.087Z,74
2023-05-14T09:55:39.427Z,75
2023-05-14T10:00:41.136Z,73
2023-05-14T10:05:42.553Z,72
2023-05-14T10:10:44.515Z,71
2023-05-14T10:15:46.017Z,72
2023-05-14T10:20:47.401Z,71
2023-05-14T10:25:49.383Z,71
2023-05-14T10:30:51.139Z,70
2023-05-14T10:35:53.189Z,71
2023-05-14T10:40:54.865Z,70
2023-05-14T10:45:56.373Z,70
2023-05-14T10:50:57.826Z,71
2023-05-14T10:55:59.045Z,71
2023-05-14T11:01:01.182Z,70
2023-05-14T11:06:02.880Z,69
2023-05-14T11:11:04.516Z,69
2023-05-14T11:21:07.981Z,69
2023-05-14T11:26:09.754Z,68
2023-05-14T11:31:11.545Z,68
2023-05-14T11:36:12.987Z,67
2023-05-14T11:41:15.130Z,65
2023-05-14T11:46:16.750Z,65
2023-05-14T11:51:18.136Z,64
2023-05-14T11:56:19.366Z,64
2023-05-14T12:01:21.111Z,63
2023-05-14T12:06:22.824Z,63
2023-05-14T12:11:24.188Z,62
2023-05-14T12:16:26.069Z,61
2023-05-14T12:21:27.343Z,60
2023-05-14T12:26:28.694Z,59
2023-05-14T12:31:30.011Z,60
2023-05-14T12:36:31.794Z,58
2023-05-14T12:41:32.979Z,56
2023-05-14T12:46:34.835Z,57
2023-05-14T12:51:36.843Z,57
2023-05-14T12:56:38.456Z,56
2023-05-14T13:01:40.648Z,56
2023-05-14T13:06:42.711Z,55
2023-05-14T13:11:44.276Z,55
2023-05-14T13:16:46.135Z,55
2023-05-14T13:21:48.075Z,54
2023-05-14T13:26:49.887Z,55
2023-05-14T13:31:51.166Z,53
2023-05-14T13:36:52.325Z,53
2023-05-14T13:41:54.017Z,52
2023-05-14T13:46:55.992Z,52
2023-05-14T13:51:57.518Z,53
2023-05-14T13:56:59.075Z,53
2023-05-14T14:02:01.078Z,51
2023-05-14T14:07:02.418Z,51
2023-05-14T14:12:03.875Z,52
2023-05-14T14:17:05.894Z,51
2023-05-14T14:22:07.917Z,51
2023-05-14T14:27:09.346Z,50
2023-05-14T14:32:10.809Z,51
2023-05-14T14:37:12.647Z,50
2023-05-14T14:42:14.392Z,51
2023-05-14T14:47:16.312Z,50
2023-05-14T14:52:17.807Z,51
2023-05-14T14:57:19.700Z,50
2023-05-14T15:02:21.673Z,50
2023-05-14T15:07:23.572Z,49
2023-05-14T15:12:25.011Z,48
2023-05-14T15:17:26.644Z,49
2023-05-14T15:17:32.987Z,49
2023-05-14T15:22:34.919Z,50
2023-05-14T15:27:36.863Z,48
2023-05-14T15:32:38.233Z,53
2023-05-14T15:37:40.083Z,57
2023-05-14T15:42:41.985Z,60
2023-05-14T15:47:44.073Z,63
2023-05-14T15:52:46.107Z,66
2023-05-14T15:57:47.741Z,69
2023-05-14T16:02:49.001Z,73
2023-05-14T16:07:51.047Z,75
2023-05-14T16:12:52.995Z,77
2023-05-14T16:17:56.250Z,78
2023-05-14T16:22:56.244Z,80
2023-05-14T16:27:58.089Z,82
2023-05-14T16:32:59.761Z,83
2023-05-14T16:38:01.808Z,84
2023-05-14T16:43:03.312Z,85
2023-05-14T16:48:04.582Z,84
2023-05-14T16:53:05.840Z,84
2023-05-14T16:58:07.632Z,80
2023-05-14T17:03:08.993Z,78
2023-05-14T17:08:10.441Z,78
2023-05-14T17:13:11.789Z,77
2023-05-14T17:18:13.433Z,79
2023-05-14T17:58:26.528Z,79
2023-05-14T18:13:31.663Z,79
2023-05-14T18:48:43.980Z,80
2023-05-14T19:33:59.798Z,78
2023-05-14T19:44:03.256Z,79
2023-05-14T19:49:05.412Z,79
2023-05-14T20:19:14.040Z,81
2023-05-14T20:24:15.599Z,81
2023-05-14T20:29:17.048Z,81
2023-05-14T20:34:18.806Z,82
2023-05-14T20:39:20.917Z,82
2023-05-14T20:44:22.579Z,81
2023-05-14T20:49:24.316Z,81
2023-05-14T20:54:26.102Z,81
2023-05-14T20:59:27.387Z,80
2023-05-14T21:04:28.638Z,81
2023-05-14T21:09:29.968Z,82
2023-05-14T21:14:31.796Z,81
2023-05-14T21:19:33.497Z,80
2023-05-14T21:24:35.362Z,81
2023-05-14T21:29:36.996Z,81
2023-05-14T21:34:38.976Z,81
2023-05-14T21:39:41.153Z,81
2023-05-14T21:44:43.180Z,81
2023-05-14T21:49:44.397Z,80
2023-05-14T21:54:45.907Z,81
2023-05-14T21:59:47.355Z,82
2023-05-14T22:04:49.396Z,81
2023-05-14T22:09:50.765Z,81
2023-05-14T22:14:52.008Z,82
2023-05-14T22:19:53.874Z,82
2023-05-14T22:24:55.083Z,82
2023-05-14T22:29:56.658Z,82
2023-05-14T22:34:58.492Z,83
2023-05-14T22:40:00.222Z,82
2023-05-14T22:45:02.053Z,83
2023-05-14T22:50:04.087Z,83
2023-05-14T22:55:06.134Z,83
2023-05-14T23:00:07.425Z,82
2023-05-14T23:05:09.378Z,83
2023-05-14T23:10:10.994Z,84
2023-05-14T23:15:12.843Z,83
2023-05-14T23:20:14.477Z,83
2023-05-14T23:25:16.041Z,84
2023-05-14T23:30:18.139Z,84
2023-05-14T23:35:19.389Z,84
2023-05-14T23:40:20.954Z,84
2023-05-14T23:45:23.049Z,84
2023-05-14T23:50:24.400Z,84
2023-05-14T23:55:26.214Z,84
